Time,TemperatureF,DewpointF,PressureIn,WindDirection,WindDirectionDegrees,WindSpeedMPH,WindSpeedGustMPH,Humidity,HourlyPrecipIn,Conditions,Clouds,dailyrainin,SoftwareType,DateUTC
2013-01-18 00:01:00,44.8,43.7,29.95,NNE,28,0.0,0.0,96,0.00,,,0.76,VWS V14.00,2013-01-18 05:01:00,
2013-01-18 00:02:00,44.8,43.7,29.95,NNE,26,0.0,0.0,96,0.00,,,0.00,VWS V14.00,2013-01-18 05:02:00,
2013-01-18 00:03:00,44.8,43.7,29.96,NNE,30,0.0,0.0,96,0.00,,,0.00,VWS V14.00,2013-01-18 05:03:00,
2013-01-18 00:08:00,44.7,43.6,29.97,NNE,25,0.0,0.0,96,0.00,,,0.00,VWS V14.00,2013-01-18 05:08:00,
2013-01-18 00:13:00,44.4,43.1,29.97,North,5,0.0,0.0,95,0.00,,,0.00,VWS V14.00,2013-01-18 05:13:00,
2013-01-18 00:18:00,44.3,43.0,29.97,NNE,29,0.0,0.0,95,0.00,,,0.00,VWS V14.00,2013-01-18 05:18:00,
2013-01-18 00:23:00,44.3,43.0,29.97,NNE,30,0.0,0.0,95,0.00,,,0.00,VWS V14.00,2013-01-18 05:23:00,
2013-01-18 00:28:00,44.3,43.0,29.98,NNE,26,0.0,0.0,95,0.00,,,0.00,VWS V14.00,2013-01-18 05:28:00,
2013-01-18 00:34:00,44.2,42.9,29.99,ENE,57,0.0,0.0,95,0.00,,,0.00,VWS V14.00,2013-01-18 05:34:00,
2013-01-18 00:39:00,44.1,42.8,29.99,NNE,26,0.0,0.0,95,0.00,,,0.00,VWS V14.00,2013-01-18 05:39:00,
2013-01-18 00:44:00,44.1,42.8,30.00,NNE,26,0.0,0.0,95,0.00,,,0.00,VWS V14.00,2013-01-18 05:44:00,
2013-01-18 00:49:00,44.2,42.9,30.01,NNE,28,0.0,0.0,95,0.00,,,0.00,VWS V14.00,2013-01-18 05:49:00,
2013-01-18 00:54:00,44.0,42.7,30.01,NNE,30,0.0,0.0,95,0.00,,,0.00,VWS V14.00,2013-01-18 05:54:00,
2013-01-18 00:59:00,44.0,42.7,30.01,NNE,33,0.0,0.0,95,0.00,,,0.00,VWS V14.00,2013-01-18 05:59:00,
2013-01-18 01:04:00,44.0,42.7,30.02,NNE,33,0.0,0.0,95,0.00,,,0.00,VWS V14.00,2013-01-18 06:04:00,
2013-01-18 01:09:00,43.9,42.6,30.03,NNE,24,0.0,0.0,95,0.00,,,0.00,VWS V14.00,2013-01-18 06:09:00,
2013-01-18 01:14:00,43.8,42.5,30.03,NNE,17,0.0,0.0,95,0.00,,,0.00,VWS V14.00,2013-01-18 06:14:00,
2013-01-18 01:19:00,43.7,42.4,30.04,NNE,25,0.0,0.0,95,0.00,,,0.00,VWS V14.00,2013-01-18 06:19:00,
2013-01-18 01:24:00,43.5,42.2,30.05,ENE,59,0.0,0.0,95,0.00,,,0.00,VWS V14.00,2013-01-18 06:24:00,
2013-01-18 01:29:00,43.4,42.1,30.04,NNE,32,0.0,0.0,95,0.00,,,0.00,VWS V14.00,2013-01-18 06:29:00,
2013-01-18 01:34:00,43.3,42.0,30.04,NE,46,0.0,0.0,95,0.00,,,0.00,VWS V14.00,2013-01-18 06:34:00,
2013-01-18 01:39:00,43.1,41.8,30.04,NNE,33,0.0,0.0,95,0.00,,,0.00,VWS V14.00,2013-01-18 06:39:00,
2013-01-18 01:44:00,43.0,41.7,30.05,NE,40,0.0,0.0,95,0.00,,,0.00,VWS V14.00,2013-01-18 06:44:00,
2013-01-18 01:49:00,42.9,41.6,30.06,NNE,30,0.0,0.0,95,0.00,,,0.00,VWS V14.00,2013-01-18 06:49:00,
2013-01-18 01:54:00,42.9,41.6,30.06,NNE,28,0.0,0.0,95,0.00,,,0.00,VWS V14.00,2013-01-18 06:54:00,
2013-01-18 02:00:00,42.9,41.6,30.06,ENE,62,0.0,0.0,95,0.01,,,0.01,VWS V14.00,2013-01-18 07:00:00,
2013-01-18 02:05:00,42.7,41.4,30.07,ENE,57,0.0,0.0,95,0.01,,,0.01,VWS V14.00,2013-01-18 07:05:00,
2013-01-18 02:10:00,42.7,41.4,30.08,NE,44,0.0,0.0,95,0.01,,,0.01,VWS V14.00,2013-01-18 07:10:00,
2013-01-18 02:15:00,42.7,41.4,30.08,ENE,61,0.0,0.0,95,0.01,,,0.01,VWS V14.00,2013-01-18 07:15:00,
2013-01-18 02:20:00,42.7,41.4,30.08,ENE,65,0.0,0.0,95,0.01,,,0.01,VWS V14.00,2013-01-18 07:20:00,
2013-01-18 02:25:00,42.7,41.4,30.08,NE,38,0.0,0.0,95,0.01,,,0.01,VWS V14.00,2013-01-18 07:25:00,
2013-01-18 02:30:00,42.6,41.3,30.09,NNE,29,0.0,0.0,95,0.01,,,0.01,VWS V14.00,2013-01-18 07:30:00,
2013-01-18 02:35:00,42.6,41.0,30.09,NE,46,0.0,0.0,94,0.01,,,0.01,VWS V14.00,2013-01-18 07:35:00,
2013-01-18 02:40:00,42.7,41.4,30.08,NE,49,0.0,0.0,95,0.01,,,0.01,VWS V14.00,2013-01-18 07:40:00,
2013-01-18 02:45:00,42.5,40.9,30.08,NNE,29,0.0,0.0,94,0.01,,,0.01,VWS V14.00,2013-01-18 07:45:00,
2013-01-18 02:50:00,42.5,40.9,30.09,NE,39,0.0,0.0,94,0.01,,,0.01,VWS V14.00,2013-01-18 07:50:00,
2013-01-18 02:55:00,42.4,40.8,30.11,North,11,0.0,0.0,94,0.01,,,0.01,VWS V14.00,2013-01-18 07:55:00,
2013-01-18 03:00:00,42.4,40.8,30.12,NNE,32,0.0,0.0,94,0.01,,,0.01,VWS V14.00,2013-01-18 08:00:00,
2013-01-18 03:05:00,42.4,40.8,30.13,NNE,30,0.0,0.0,94,0.00,,,0.01,VWS V14.00,2013-01-18 08:05:00,
2013-01-18 03:10:00,42.4,40.8,30.14,NNE,32,0.0,0.0,94,0.00,,,0.01,VWS V14.00,2013-01-18 08:10:00,
2013-01-18 03:15:00,42.5,40.9,30.15,NNE,22,0.0,0.0,94,0.00,,,0.01,VWS V14.00,2013-01-18 08:15:00,
2013-01-18 03:20:00,42.5,40.9,30.15,NNE,28,0.0,0.0,94,0.00,,,0.01,VWS V14.00,2013-01-18 08:20:00,
2013-01-18 03:25:00,42.4,40.8,30.16,North,9,0.0,0.0,94,0.00,,,0.01,VWS V14.00,2013-01-18 08:25:00,
2013-01-18 03:30:00,42.2,40.3,30.16,NE,40,0.0,0.0,93,0.00,,,0.01,VWS V14.00,2013-01-18 08:30:00,
2013-01-18 03:35:00,42.0,40.1,30.17,NNE,32,0.0,0.0,93,0.00,,,0.01,VWS V14.00,2013-01-18 08:35:00,
2013-01-18 03:40:00,42.0,40.1,30.17,NNE,13,0.0,0.0,93,0.00,,,0.01,VWS V14.00,2013-01-18 08:40:00,
2013-01-18 03:46:00,41.9,40.0,30.17,North,360,0.0,0.0,93,0.00,,,0.01,VWS V14.00,2013-01-18 08:46:00,
2013-01-18 03:51:00,41.7,39.8,30.18,NNE,14,0.0,0.0,93,0.00,,,0.01,VWS V14.00,2013-01-18 08:51:00,
2013-01-18 03:56:00,41.6,39.5,30.17,NNE,22,0.0,0.0,92,0.00,,,0.01,VWS V14.00,2013-01-18 08:56:00,
2013-01-18 04:01:00,41.5,39.3,30.17,NNE,30,0.0,0.0,92,0.00,,,0.01,VWS V14.00,2013-01-18 09:01:00,
2013-01-18 04:06:00,41.4,39.2,30.17,NNE,32,0.0,0.0,92,0.00,,,0.01,VWS V14.00,2013-01-18 09:06:00,
2013-01-18 04:11:00,41.3,39.2,30.17,NE,41,0.0,0.0,92,0.00,,,0.01,VWS V14.00,2013-01-18 09:11:00,
2013-01-18 04:16:00,41.2,39.3,30.18,NE,37,0.0,0.0,93,0.00,,,0.01,VWS V14.00,2013-01-18 09:16:00,
2013-01-18 04:21:00,41.2,39.3,30.18,NE,44,0.0,0.0,93,0.00,,,0.01,VWS V14.00,2013-01-18 09:21:00,
2013-01-18 04:26:00,41.2,39.3,30.18,NNE,29,0.0,0.0,93,0.00,,,0.01,VWS V14.00,2013-01-18 09:26:00,
2013-01-18 04:31:00,41.2,39.3,30.18,NNE,29,0.0,0.0,93,0.00,,,0.01,VWS V14.00,2013-01-18 09:31:00,
2013-01-18 04:36:00,41.2,39.3,30.18,NE,44,0.0,0.0,93,0.00,,,0.01,VWS V14.00,2013-01-18 09:36:00,
2013-01-18 04:41:00,41.1,39.2,30.19,NE,38,0.0,0.0,93,0.00,,,0.01,VWS V14.00,2013-01-18 09:41:00,
2013-01-18 04:46:00,41.1,39.2,30.19,NE,39,0.0,0.0,93,0.00,,,0.01,VWS V14.00,2013-01-18 09:46:00,
2013-01-18 04:51:00,41.0,39.1,30.20,NE,39,0.0,0.0,93,0.00,,,0.01,VWS V14.00,2013-01-18 09:51:00,
2013-01-18 04:56:00,40.9,39.0,30.20,NNE,32,0.0,0.0,93,0.00,,,0.01,VWS V14.00,2013-01-18 09:56:00,
2013-01-18 05:01:00,40.9,39.3,30.20,NNE,32,0.0,0.0,94,0.00,,,0.01,VWS V14.00,2013-01-18 10:01:00,
2013-01-18 05:06:00,40.9,39.0,30.21,NE,34,0.0,0.0,93,0.00,,,0.01,VWS V14.00,2013-01-18 10:06:00,
2013-01-18 05:11:00,40.8,38.9,30.21,NNE,32,0.0,0.0,93,0.00,,,0.01,VWS V14.00,2013-01-18 10:11:00,
2013-01-18 05:16:00,40.8,38.9,30.21,NE,37,0.0,0.0,93,0.00,,,0.01,VWS V14.00,2013-01-18 10:16:00,
2013-01-18 05:21:00,40.7,38.8,30.21,NE,37,0.0,0.0,93,0.00,,,0.01,VWS V14.00,2013-01-18 10:21:00,
2013-01-18 05:27:00,40.5,38.6,30.21,NE,36,0.0,0.0,93,0.00,,,0.01,VWS V14.00,2013-01-18 10:27:00,
2013-01-18 05:32:00,40.4,38.5,30.21,NE,40,0.0,0.0,93,0.00,,,0.01,VWS V14.00,2013-01-18 10:32:00,
2013-01-18 05:37:00,40.4,38.5,30.21,NNE,33,0.0,0.0,93,0.00,,,0.01,VWS V14.00,2013-01-18 10:37:00,
2013-01-18 05:42:00,40.2,38.3,30.22,NNE,33,0.0,0.0,93,0.00,,,0.01,VWS V14.00,2013-01-18 10:42:00,
2013-01-18 05:47:00,40.0,38.4,30.22,NNE,33,0.0,0.0,94,0.00,,,0.01,VWS V14.00,2013-01-18 10:47:00,
2013-01-18 05:52:00,39.9,38.3,30.23,NNE,33,0.0,0.0,94,0.00,,,0.01,VWS V14.00,2013-01-18 10:52:00,
2013-01-18 05:57:00,39.8,38.2,30.23,NNE,32,0.0,0.0,94,0.00,,,0.01,VWS V14.00,2013-01-18 10:57:00,
2013-01-18 06:02:00,39.7,38.1,30.23,NNE,32,0.0,0.0,94,0.00,,,0.01,VWS V14.00,2013-01-18 11:02:00,
2013-01-18 06:07:00,39.6,38.0,30.24,NNE,32,0.0,0.0,94,0.00,,,0.01,VWS V14.00,2013-01-18 11:07:00,
2013-01-18 06:12:00,39.5,37.9,30.24,NNE,30,0.0,0.0,94,0.00,,,0.01,VWS V14.00,2013-01-18 11:12:00,
2013-01-18 06:17:00,39.4,37.8,30.24,NNE,29,0.0,0.0,94,0.00,,,0.01,VWS V14.00,2013-01-18 11:17:00,
2013-01-18 06:22:00,39.3,38.0,30.24,NNE,29,0.0,0.0,95,0.00,,,0.01,VWS V14.00,2013-01-18 11:22:00,
2013-01-18 06:27:00,39.1,37.8,30.25,NNE,30,0.0,0.0,95,0.00,,,0.01,VWS V14.00,2013-01-18 11:27:00,
2013-01-18 06:32:00,39.0,37.7,30.25,NNE,30,0.0,0.0,95,0.00,,,0.01,VWS V14.00,2013-01-18 11:32:00,
2013-01-18 06:37:00,39.0,37.7,30.25,NNE,30,0.0,0.0,95,0.00,,,0.01,VWS V14.00,2013-01-18 11:37:00,
2013-01-18 06:42:00,38.9,37.6,30.26,NNE,30,0.0,0.0,95,0.00,,,0.01,VWS V14.00,2013-01-18 11:42:00,
2013-01-18 06:47:00,38.8,37.5,30.26,NNE,29,0.0,0.0,95,0.00,,,0.01,VWS V14.00,2013-01-18 11:47:00,
2013-01-18 06:52:00,38.7,37.4,30.27,NNE,30,0.0,0.0,95,0.00,,,0.01,VWS V14.00,2013-01-18 11:52:00,
2013-01-18 06:58:00,38.7,37.7,30.27,NNE,30,0.0,0.0,96,0.00,,,0.01,VWS V14.00,2013-01-18 11:58:00,
2013-01-18 07:03:00,38.6,37.6,30.27,NNE,29,0.0,0.0,96,0.00,,,0.01,VWS V14.00,2013-01-18 12:03:00,
2013-01-18 07:08:00,38.6,37.6,30.27,NNE,30,0.0,0.0,96,0.00,,,0.01,VWS V14.00,2013-01-18 12:08:00,
2013-01-18 07:13:00,38.5,37.5,30.28,NE,55,0.0,0.0,96,0.00,,,0.01,VWS V14.00,2013-01-18 12:13:00,
2013-01-18 07:18:00,38.6,37.6,30.29,NE,49,0.0,0.0,96,0.00,,,0.01,VWS V14.00,2013-01-18 12:18:00,
2013-01-18 07:23:00,38.6,37.6,30.29,NNE,33,0.0,0.0,96,0.00,,,0.01,VWS V14.00,2013-01-18 12:23:00,
2013-01-18 07:28:00,38.7,37.7,30.30,NE,46,0.0,0.0,96,0.00,,,0.01,VWS V14.00,2013-01-18 12:28:00,
2013-01-18 07:33:00,38.8,37.5,30.30,NE,48,0.0,0.0,95,0.00,,,0.01,VWS V14.00,2013-01-18 12:33:00,
2013-01-18 07:38:00,38.9,37.6,30.30,NE,46,0.0,0.0,95,0.00,,,0.01,VWS V14.00,2013-01-18 12:38:00,
2013-01-18 07:43:00,38.9,37.6,30.31,NNE,30,0.0,0.0,95,0.00,,,0.01,VWS V14.00,2013-01-18 12:43:00,
2013-01-18 07:48:00,39.0,37.7,30.31,NE,45,0.0,0.0,95,0.00,,,0.01,VWS V14.00,2013-01-18 12:48:00,
2013-01-18 07:53:00,39.0,37.7,30.32,NE,40,0.0,0.0,95,0.00,,,0.01,VWS V14.00,2013-01-18 12:53:00,
2013-01-18 07:58:00,39.1,37.8,30.32,NE,44,0.0,0.0,95,0.00,,,0.01,VWS V14.00,2013-01-18 12:58:00,
2013-01-18 08:03:00,39.2,37.9,30.33,ENE,67,0.0,0.0,95,0.00,,,0.01,VWS V14.00,2013-01-18 13:03:00,
2013-01-18 08:08:00,39.2,37.6,30.33,NNE,22,0.0,0.0,94,0.00,,,0.01,VWS V14.00,2013-01-18 13:08:00,
2013-01-18 08:13:00,39.3,37.7,30.33,NNE,24,0.0,0.0,94,0.00,,,0.01,VWS V14.00,2013-01-18 13:13:00,
2013-01-18 08:18:00,39.4,37.8,30.34,ENE,57,0.0,0.0,94,0.00,,,0.01,VWS V14.00,2013-01-18 13:18:00,
2013-01-18 08:23:00,39.5,37.9,30.34,NE,44,0.0,0.0,94,0.00,,,0.01,VWS V14.00,2013-01-18 13:23:00,
2013-01-18 08:28:00,39.6,38.0,30.35,NE,45,0.0,0.0,94,0.00,,,0.01,VWS V14.00,2013-01-18 13:28:00,
2013-01-18 08:33:00,39.6,37.8,30.35,ENE,63,0.0,0.0,93,0.00,,,0.01,VWS V14.00,2013-01-18 13:33:00,
2013-01-18 08:38:00,39.7,37.8,30.35,NE,52,0.0,0.0,93,0.00,,,0.01,VWS V14.00,2013-01-18 13:38:00,
2013-01-18 08:43:00,39.8,38.0,30.36,NE,46,0.0,0.0,93,0.00,,,0.01,VWS V14.00,2013-01-18 13:43:00,
2013-01-18 08:48:00,39.8,37.7,30.36,ENE,64,0.0,0.0,92,0.00,,,0.01,VWS V14.00,2013-01-18 13:48:00,
2013-01-18 08:53:00,39.9,37.8,30.36,NE,44,0.0,0.0,92,0.00,,,0.01,VWS V14.00,2013-01-18 13:53:00,
2013-01-18 08:58:00,40.1,38.0,30.37,NE,46,0.0,0.0,92,0.00,,,0.01,VWS V14.00,2013-01-18 13:58:00,
2013-01-18 09:03:00,40.4,38.3,30.37,NE,44,0.0,0.0,92,0.00,,,0.01,VWS V14.00,2013-01-18 14:03:00,
2013-01-18 09:08:00,40.8,38.4,30.38,NE,47,0.0,0.0,91,0.00,,,0.01,VWS V14.00,2013-01-18 14:08:00,
2013-01-18 09:13:00,41.1,38.1,30.38,NE,43,0.0,0.0,89,0.00,,,0.01,VWS V14.00,2013-01-18 14:13:00,
2013-01-18 09:18:00,41.4,37.8,30.38,ENE,65,0.0,0.0,87,0.00,,,0.01,VWS V14.00,2013-01-18 14:18:00,
2013-01-18 09:23:00,41.8,38.5,30.38,NE,56,0.0,0.0,88,0.00,,,0.01,VWS V14.00,2013-01-18 14:23:00,
2013-01-18 09:28:00,42.3,39.0,30.39,NE,45,0.0,0.0,88,0.00,,,0.01,VWS V14.00,2013-01-18 14:28:00,
2013-01-18 09:33:00,42.6,38.4,30.39,NE,49,0.0,0.0,85,0.00,,,0.01,VWS V14.00,2013-01-18 14:33:00,
2013-01-18 09:38:00,42.8,38.9,30.39,NNE,21,0.0,0.0,86,0.00,,,0.01,VWS V14.00,2013-01-18 14:38:00,
2013-01-18 09:43:00,42.9,38.4,30.40,NE,37,0.0,0.0,84,0.00,,,0.01,VWS V14.00,2013-01-18 14:43:00,
2013-01-18 09:48:00,42.7,37.9,30.40,North,11,0.0,0.0,83,0.00,,,0.01,VWS V14.00,2013-01-18 14:48:00,
2013-01-18 09:54:00,42.6,38.1,30.41,NNE,29,0.0,0.0,84,0.00,,,0.01,VWS V14.00,2013-01-18 14:54:00,
2013-01-18 09:58:00,42.9,38.4,30.40,NNE,30,0.0,0.0,84,0.00,,,0.01,VWS V14.00,2013-01-18 14:58:00,
2013-01-18 10:03:00,43.3,37.9,30.40,NNE,32,0.0,0.0,81,0.00,,,0.01,VWS V14.00,2013-01-18 15:03:00,
2013-01-18 10:08:00,43.6,37.8,30.41,NE,46,0.0,0.0,80,0.00,,,0.01,VWS V14.00,2013-01-18 15:08:00,
2013-01-18 10:14:00,43.6,36.9,30.41,NE,49,0.0,0.0,77,0.00,,,0.01,VWS V14.00,2013-01-18 15:14:00,
2013-01-18 10:19:00,43.9,37.8,30.41,ENE,67,0.0,0.0,79,0.00,,,0.01,VWS V14.00,2013-01-18 15:19:00,
2013-01-18 10:24:00,44.1,37.4,30.40,NE,55,0.0,0.0,77,0.00,,,0.01,VWS V14.00,2013-01-18 15:24:00,
2013-01-18 10:29:00,44.3,37.2,30.40,NE,53,0.0,0.0,76,0.00,,,0.01,VWS V14.00,2013-01-18 15:29:00,
2013-01-18 10:34:00,44.5,36.7,30.40,NE,55,0.0,0.0,74,0.00,,,0.01,VWS V14.00,2013-01-18 15:34:00,
2013-01-18 10:39:00,45.1,37.0,30.39,ENE,69,0.0,0.0,73,0.00,,,0.01,VWS V14.00,2013-01-18 15:39:00,
2013-01-18 10:44:00,45.2,37.1,30.40,NE,38,0.0,0.0,73,0.00,,,0.01,VWS V14.00,2013-01-18 15:44:00,
2013-01-18 10:49:00,45.4,36.9,30.40,ENE,63,0.0,0.0,72,0.00,,,0.01,VWS V14.00,2013-01-18 15:49:00,
2013-01-18 10:54:00,45.8,37.7,30.40,ENE,59,0.0,0.0,73,0.00,,,0.01,VWS V14.00,2013-01-18 15:54:00,
2013-01-18 10:59:00,46.3,37.8,30.40,NE,40,0.0,0.0,72,0.00,,,0.01,VWS V14.00,2013-01-18 15:59:00,
2013-01-18 11:04:00,46.6,36.2,30.40,NE,37,0.0,0.0,67,0.00,,,0.01,VWS V14.00,2013-01-18 16:04:00,
2013-01-18 11:09:00,46.5,35.8,30.40,NE,37,0.0,0.0,66,0.00,,,0.01,VWS V14.00,2013-01-18 16:09:00,
2013-01-18 11:14:00,46.9,36.5,30.40,NNE,33,0.0,0.0,67,0.00,,,0.01,VWS V14.00,2013-01-18 16:14:00,
2013-01-18 11:19:00,47.1,36.3,30.40,NNE,33,0.0,0.0,66,0.00,,,0.01,VWS V14.00,2013-01-18 16:19:00,
2013-01-18 11:24:00,47.4,36.2,30.40,North,10,0.0,0.0,65,0.00,,,0.01,VWS V14.00,2013-01-18 16:24:00,
2013-01-18 11:29:00,47.3,34.5,30.40,NNE,23,0.0,0.0,61,0.00,,,0.01,VWS V14.00,2013-01-18 16:29:00,
2013-01-18 11:35:00,47.5,34.7,30.40,NNE,28,0.0,0.0,61,0.00,,,0.01,VWS V14.00,2013-01-18 16:35:00,
2013-01-18 11:40:00,47.5,35.5,30.40,NE,43,0.0,0.0,63,0.00,,,0.01,VWS V14.00,2013-01-18 16:40:00,
2013-01-18 11:45:00,47.8,35.4,30.39,NE,36,0.0,0.0,62,0.00,,,0.01,VWS V14.00,2013-01-18 16:45:00,
2013-01-18 11:50:00,47.9,35.5,30.39,ENE,61,0.0,0.0,62,0.00,,,0.01,VWS V14.00,2013-01-18 16:50:00,
2013-01-18 11:55:00,48.2,34.1,30.39,NE,35,0.0,0.0,58,0.00,,,0.01,VWS V14.00,2013-01-18 16:55:00,
2013-01-18 12:00:00,48.4,34.8,30.39,NE,36,0.0,0.0,59,0.00,,,0.01,VWS V14.00,2013-01-18 17:00:00,
2013-01-18 12:05:00,48.3,34.2,30.38,NE,49,0.0,0.0,58,0.00,,,0.01,VWS V14.00,2013-01-18 17:05:00,
2013-01-18 12:10:00,48.8,35.5,30.38,NE,34,0.0,0.0,60,0.00,,,0.01,VWS V14.00,2013-01-18 17:10:00,
2013-01-18 12:15:00,48.9,36.5,30.38,NE,55,0.0,0.0,62,0.00,,,0.01,VWS V14.00,2013-01-18 17:15:00,
2013-01-18 12:20:00,49.0,34.9,30.37,NNE,31,0.0,0.0,58,0.00,,,0.01,VWS V14.00,2013-01-18 17:20:00,
2013-01-18 12:25:00,49.4,34.8,30.37,NE,50,0.0,0.0,57,0.00,,,0.01,VWS V14.00,2013-01-18 17:25:00,
2013-01-18 12:30:00,49.3,35.6,30.37,ENE,59,0.0,0.0,59,0.00,,,0.01,VWS V14.00,2013-01-18 17:30:00,
2013-01-18 12:35:00,49.7,36.4,30.37,NE,53,0.0,0.0,60,0.00,,,0.01,VWS V14.00,2013-01-18 17:35:00,
2013-01-18 12:40:00,49.7,34.2,30.37,ENE,68,0.0,0.0,55,0.00,,,0.01,VWS V14.00,2013-01-18 17:40:00,
2013-01-18 12:45:00,49.6,35.0,30.37,NNE,33,0.0,0.0,57,0.00,,,0.01,VWS V14.00,2013-01-18 17:45:00,
2013-01-18 12:50:00,49.8,36.1,30.37,NE,42,0.0,0.0,59,0.00,,,0.01,VWS V14.00,2013-01-18 17:50:00,
2013-01-18 12:56:00,50.1,35.0,30.37,ENE,59,0.0,0.0,56,0.00,,,0.01,VWS V14.00,2013-01-18 17:56:00,
2013-01-18 13:01:00,50.6,33.6,30.37,NE,56,0.0,0.0,52,0.00,,,0.01,VWS V14.00,2013-01-18 18:01:00,
2013-01-18 13:06:00,50.6,34.1,30.37,NE,46,0.0,0.0,53,0.00,,,0.01,VWS V14.00,2013-01-18 18:06:00,
2013-01-18 13:11:00,50.7,34.2,30.37,NE,38,0.0,0.0,53,0.00,,,0.01,VWS V14.00,2013-01-18 18:11:00,
2013-01-18 13:16:00,50.7,34.2,30.37,NNE,31,0.0,0.0,53,0.00,,,0.01,VWS V14.00,2013-01-18 18:16:00,
2013-01-18 13:21:00,51.1,35.0,30.37,NE,38,0.0,0.0,54,0.00,,,0.01,VWS V14.00,2013-01-18 18:21:00,
2013-01-18 13:26:00,50.9,33.9,30.37,NE,40,0.0,0.0,52,0.00,,,0.01,VWS V14.00,2013-01-18 18:26:00,
2013-01-18 13:31:00,50.8,33.3,30.37,NE,53,0.0,0.0,51,0.00,,,0.01,VWS V14.00,2013-01-18 18:31:00,
2013-01-18 13:36:00,50.6,32.2,30.37,NNE,26,0.0,0.0,49,0.00,,,0.01,VWS V14.00,2013-01-18 18:36:00,
2013-01-18 13:41:00,50.8,33.3,30.37,NNE,28,0.0,0.0,51,0.00,,,0.01,VWS V14.00,2013-01-18 18:41:00,
2013-01-18 13:46:00,51.2,33.7,30.37,NNE,19,0.0,0.0,51,0.00,,,0.01,VWS V14.00,2013-01-18 18:46:00,
2013-01-18 13:51:00,51.2,33.7,30.37,NE,53,0.0,0.0,51,0.00,,,0.01,VWS V14.00,2013-01-18 18:51:00,
2013-01-18 13:56:00,51.1,32.6,30.36,ENE,69,0.0,0.0,49,0.00,,,0.01,VWS V14.00,2013-01-18 18:56:00,
2013-01-18 14:01:00,51.2,33.7,30.37,ENE,61,0.0,0.0,51,0.00,,,0.01,VWS V14.00,2013-01-18 19:01:00,
2013-01-18 14:06:00,51.6,32.6,30.36,ENE,67,0.0,0.0,48,0.00,,,0.01,VWS V14.00,2013-01-18 19:06:00,
2013-01-18 14:11:00,51.6,32.6,30.36,ENE,59,0.0,0.0,48,0.00,,,0.01,VWS V14.00,2013-01-18 19:11:00,
2013-01-18 14:16:00,51.5,33.5,30.37,ENE,76,0.0,0.0,50,0.00,,,0.01,VWS V14.00,2013-01-18 19:16:00,
2013-01-18 14:21:00,51.6,31.5,30.36,NE,48,0.0,0.0,46,0.00,,,0.01,VWS V14.00,2013-01-18 19:21:00,
2013-01-18 14:26:00,51.5,32.0,30.36,NE,55,0.0,0.0,47,0.00,,,0.01,VWS V14.00,2013-01-18 19:26:00,
2013-01-18 14:31:00,51.7,32.1,30.37,ENE,60,0.0,0.0,47,0.00,,,0.01,VWS V14.00,2013-01-18 19:31:00,
2013-01-18 14:36:00,51.6,31.5,30.36,ENE,59,0.0,0.0,46,0.00,,,0.01,VWS V14.00,2013-01-18 19:36:00,
2013-01-18 14:41:00,51.8,32.2,30.37,ENE,69,0.0,0.0,47,0.00,,,0.01,VWS V14.00,2013-01-18 19:41:00,
2013-01-18 14:46:00,52.1,32.0,30.37,ENE,57,0.0,0.0,46,0.00,,,0.01,VWS V14.00,2013-01-18 19:46:00,
2013-01-18 14:51:00,52.0,31.3,30.37,NNE,24,0.0,0.0,45,0.00,,,0.01,VWS V14.00,2013-01-18 19:51:00,
2013-01-18 14:56:00,51.8,32.2,30.38,ENE,57,0.0,0.0,47,0.00,,,0.01,VWS V14.00,2013-01-18 19:56:00,
2013-01-18 15:02:00,51.9,31.8,30.38,NE,51,0.0,0.0,46,0.00,,,0.01,VWS V14.00,2013-01-18 20:02:00,
2013-01-18 15:07:00,51.9,30.7,30.38,ENE,71,0.0,0.0,44,0.00,,,0.01,VWS V14.00,2013-01-18 20:07:00,
2013-01-18 15:12:00,51.6,30.4,30.38,NE,38,0.0,0.0,44,0.00,,,0.01,VWS V14.00,2013-01-18 20:12:00,
2013-01-18 15:17:00,51.7,31.6,30.38,ENE,65,0.0,0.0,46,0.00,,,0.01,VWS V14.00,2013-01-18 20:17:00,
2013-01-18 15:22:00,51.6,31.0,30.39,ENE,67,0.0,0.0,45,0.00,,,0.01,VWS V14.00,2013-01-18 20:22:00,
2013-01-18 15:27:00,51.7,32.1,30.39,NE,44,0.0,0.0,47,0.00,,,0.01,VWS V14.00,2013-01-18 20:27:00,
2013-01-18 15:32:00,51.8,32.2,30.39,NE,48,0.0,0.0,47,0.00,,,0.01,VWS V14.00,2013-01-18 20:32:00,
2013-01-18 15:37:00,51.7,31.1,30.39,NE,36,0.0,0.0,45,0.00,,,0.01,VWS V14.00,2013-01-18 20:37:00,
2013-01-18 15:42:00,51.7,31.6,30.40,NE,34,0.0,0.0,46,0.00,,,0.01,VWS V14.00,2013-01-18 20:42:00,
2013-01-18 15:47:00,51.5,31.4,30.40,ENE,57,0.0,0.0,46,0.00,,,0.01,VWS V14.00,2013-01-18 20:47:00,
2013-01-18 15:52:00,51.4,31.3,30.40,NE,41,0.0,0.0,46,0.00,,,0.01,VWS V14.00,2013-01-18 20:52:00,
2013-01-18 15:57:00,51.4,31.9,30.40,ENE,59,0.0,0.0,47,0.00,,,0.01,VWS V14.00,2013-01-18 20:57:00,
2013-01-18 16:02:00,51.3,32.3,30.40,ENE,62,0.0,0.0,48,0.00,,,0.01,VWS V14.00,2013-01-18 21:02:00,
2013-01-18 16:07:00,51.2,32.2,30.41,ENE,67,0.0,0.0,48,0.00,,,0.01,VWS V14.00,2013-01-18 21:07:00,
2013-01-18 16:12:00,51.2,31.7,30.41,ENE,63,0.0,0.0,47,0.00,,,0.01,VWS V14.00,2013-01-18 21:12:00,
2013-01-18 16:17:00,51.1,32.1,30.41,NE,45,0.0,0.0,48,0.00,,,0.01,VWS V14.00,2013-01-18 21:17:00,
2013-01-18 16:22:00,51.1,33.1,30.41,NE,36,0.0,0.0,50,0.00,,,0.01,VWS V14.00,2013-01-18 21:22:00,
2013-01-18 16:28:00,51.1,33.6,30.42,NE,37,0.0,0.0,51,0.00,,,0.01,VWS V14.00,2013-01-18 21:28:00,
2013-01-18 16:33:00,51.0,32.0,30.42,NE,49,0.0,0.0,48,0.00,,,0.01,VWS V14.00,2013-01-18 21:33:00,
2013-01-18 16:38:00,50.9,31.9,30.42,NE,49,0.0,0.0,48,0.00,,,0.01,VWS V14.00,2013-01-18 21:38:00,
2013-01-18 16:43:00,50.7,32.8,30.42,NE,49,0.0,0.0,50,0.00,,,0.01,VWS V14.00,2013-01-18 21:43:00,
2013-01-18 16:48:00,50.5,32.6,30.42,NE,49,0.0,0.0,50,0.00,,,0.01,VWS V14.00,2013-01-18 21:48:00,
2013-01-18 16:53:00,50.4,33.0,30.42,NE,38,0.0,0.0,51,0.00,,,0.01,VWS V14.00,2013-01-18 21:53:00,
2013-01-18 16:58:00,50.2,33.3,30.42,NE,38,0.0,0.0,52,0.00,,,0.01,VWS V14.00,2013-01-18 21:58:00,
2013-01-18 17:03:00,50.0,33.6,30.42,NE,38,0.0,0.0,53,0.00,,,0.01,VWS V14.00,2013-01-18 22:03:00,
2013-01-18 17:08:00,49.6,37.1,30.43,NE,38,0.0,0.0,62,0.00,,,0.01,VWS V14.00,2013-01-18 22:08:00,
2013-01-18 17:13:00,48.8,37.6,30.43,NE,38,0.0,0.0,65,0.00,,,0.01,VWS V14.00,2013-01-18 22:13:00,
2013-01-18 17:18:00,48.0,33.9,30.43,NE,38,0.0,0.0,58,0.00,,,0.01,VWS V14.00,2013-01-18 22:18:00,
2013-01-18 17:23:00,47.8,37.0,30.43,NE,38,0.0,0.0,66,0.00,,,0.01,VWS V14.00,2013-01-18 22:23:00,
2013-01-18 17:28:00,47.0,35.9,30.44,NE,38,0.0,0.0,65,0.00,,,0.01,VWS V14.00,2013-01-18 22:28:00,
2013-01-18 17:33:00,46.4,37.5,30.44,NE,38,0.0,0.0,71,0.00,,,0.01,VWS V14.00,2013-01-18 22:33:00,
2013-01-18 17:38:00,45.7,37.2,30.44,NE,38,0.0,0.0,72,0.00,,,0.01,VWS V14.00,2013-01-18 22:38:00,
2013-01-18 17:43:00,45.0,36.9,30.44,NE,38,0.0,0.0,73,0.00,,,0.01,VWS V14.00,2013-01-18 22:43:00,
2013-01-18 17:48:00,44.5,37.4,30.44,NE,38,0.0,0.0,76,0.00,,,0.01,VWS V14.00,2013-01-18 22:48:00,
2013-01-18 17:53:00,44.0,36.6,30.44,NE,38,0.0,0.0,75,0.00,,,0.01,VWS V14.00,2013-01-18 22:53:00,
2013-01-18 17:58:00,43.6,37.2,30.44,NE,38,0.0,0.0,78,0.00,,,0.01,VWS V14.00,2013-01-18 22:58:00,
2013-01-18 18:04:00,43.3,37.2,30.45,NE,38,0.0,0.0,79,0.00,,,0.01,VWS V14.00,2013-01-18 23:04:00,
2013-01-18 18:09:00,42.9,37.2,30.45,NE,38,0.0,0.0,80,0.00,,,0.01,VWS V14.00,2013-01-18 23:09:00,
2013-01-18 18:14:00,42.6,37.2,30.45,NE,38,0.0,0.0,81,0.00,,,0.01,VWS V14.00,2013-01-18 23:14:00,
2013-01-18 18:19:00,42.3,37.2,30.45,NE,38,0.0,0.0,82,0.00,,,0.01,VWS V14.00,2013-01-18 23:19:00,
2013-01-18 18:24:00,42.0,37.2,30.45,NE,38,0.0,0.0,83,0.00,,,0.01,VWS V14.00,2013-01-18 23:24:00,
2013-01-18 18:29:00,41.8,37.6,30.45,NE,38,0.0,0.0,85,0.00,,,0.01,VWS V14.00,2013-01-18 23:29:00,
2013-01-18 18:34:00,41.5,37.3,30.46,NE,38,0.0,0.0,85,0.00,,,0.01,VWS V14.00,2013-01-18 23:34:00,
2013-01-18 18:39:00,41.2,37.3,30.46,NE,38,0.0,0.0,86,0.00,,,0.01,VWS V14.00,2013-01-18 23:39:00,
2013-01-18 18:44:00,40.8,36.9,30.46,NE,38,0.0,0.0,86,0.00,,,0.01,VWS V14.00,2013-01-18 23:44:00,
2013-01-18 18:49:00,40.6,37.0,30.46,NE,38,0.0,0.0,87,0.00,,,0.01,VWS V14.00,2013-01-18 23:49:00,
2013-01-18 18:54:00,40.3,36.8,30.47,NE,38,0.0,0.0,87,0.00,,,0.01,VWS V14.00,2013-01-18 23:54:00,
2013-01-18 18:59:00,40.0,36.5,30.47,NE,38,0.0,0.0,87,0.00,,,0.01,VWS V14.00,2013-01-18 23:59:00,
2013-01-18 19:04:00,39.8,36.2,30.47,NE,38,0.0,0.0,87,0.00,,,0.01,VWS V14.00,2013-01-19 00:04:00,
2013-01-18 19:09:00,39.5,36.0,30.47,NE,38,0.0,0.0,87,0.00,,,0.01,VWS V14.00,2013-01-19 00:09:00,
2013-01-18 19:14:00,39.3,36.0,30.47,NE,38,0.0,0.0,88,0.00,,,0.01,VWS V14.00,2013-01-19 00:14:00,
2013-01-18 19:19:00,39.1,35.8,30.48,NE,38,0.0,0.0,88,0.00,,,0.01,VWS V14.00,2013-01-19 00:19:00,
2013-01-18 19:24:00,38.9,35.9,30.48,NE,38,0.0,0.0,89,0.00,,,0.01,VWS V14.00,2013-01-19 00:24:00,
2013-01-18 19:29:00,38.8,35.8,30.48,NE,38,0.0,0.0,89,0.00,,,0.01,VWS V14.00,2013-01-19 00:29:00,
2013-01-18 19:34:00,38.6,35.9,30.48,NE,38,0.0,0.0,90,0.00,,,0.01,VWS V14.00,2013-01-19 00:34:00,
2013-01-18 19:39:00,38.4,35.7,30.48,NE,38,0.0,0.0,90,0.00,,,0.01,VWS V14.00,2013-01-19 00:39:00,
2013-01-18 19:44:00,38.2,35.8,30.48,NE,38,0.0,0.0,91,0.00,,,0.01,VWS V14.00,2013-01-19 00:44:00,
2013-01-18 19:50:00,38.1,35.7,30.48,NE,38,0.0,0.0,91,0.00,,,0.01,VWS V14.00,2013-01-19 00:50:00,
2013-01-18 19:55:00,38.0,35.6,30.48,NE,38,0.0,0.0,91,0.00,,,0.01,VWS V14.00,2013-01-19 00:55:00,
2013-01-18 20:00:00,37.8,35.7,30.48,NE,38,0.0,0.0,92,0.00,,,0.01,VWS V14.00,2013-01-19 01:00:00,
2013-01-18 20:05:00,37.6,35.5,30.48,NE,38,0.0,0.0,92,0.00,,,0.01,VWS V14.00,2013-01-19 01:05:00,
2013-01-18 20:10:00,37.5,35.4,30.48,NE,38,0.0,0.0,92,0.00,,,0.01,VWS V14.00,2013-01-19 01:10:00,
2013-01-18 20:15:00,37.3,35.2,30.48,NE,38,0.0,0.0,92,0.00,,,0.01,VWS V14.00,2013-01-19 01:15:00,
2013-01-18 20:20:00,37.2,35.1,30.48,NE,38,0.0,0.0,92,0.00,,,0.01,VWS V14.00,2013-01-19 01:20:00,
2013-01-18 20:25:00,37.0,35.2,30.48,NE,38,0.0,0.0,93,0.00,,,0.01,VWS V14.00,2013-01-19 01:25:00,
2013-01-18 20:30:00,36.9,35.1,30.47,NE,38,0.0,0.0,93,0.00,,,0.01,VWS V14.00,2013-01-19 01:30:00,
2013-01-18 20:35:00,36.8,35.0,30.47,NE,38,0.0,0.0,93,0.00,,,0.01,VWS V14.00,2013-01-19 01:35:00,
2013-01-18 20:40:00,36.7,35.1,30.47,NE,38,0.0,0.0,94,0.00,,,0.01,VWS V14.00,2013-01-19 01:40:00,
2013-01-18 20:45:00,36.6,35.0,30.47,NE,38,0.0,0.0,94,0.00,,,0.01,VWS V14.00,2013-01-19 01:45:00,
2013-01-18 20:50:00,36.6,35.0,30.47,NE,38,0.0,0.0,94,0.00,,,0.01,VWS V14.00,2013-01-19 01:50:00,
2013-01-18 20:55:00,36.5,34.9,30.48,NE,38,0.0,0.0,94,0.00,,,0.01,VWS V14.00,2013-01-19 01:55:00,
2013-01-18 21:00:00,36.4,34.8,30.48,NE,38,0.0,0.0,94,0.00,,,0.01,VWS V14.00,2013-01-19 02:00:00,
2013-01-18 21:05:00,36.2,34.6,30.48,NE,38,0.0,0.0,94,0.00,,,0.01,VWS V14.00,2013-01-19 02:05:00,
2013-01-18 21:10:00,36.1,34.5,30.48,NE,38,0.0,0.0,94,0.00,,,0.01,VWS V14.00,2013-01-19 02:10:00,
2013-01-18 21:16:00,36.1,34.5,30.48,NE,38,0.0,0.0,94,0.00,,,0.01,VWS V14.00,2013-01-19 02:16:00,
2013-01-18 21:21:00,36.0,34.7,30.48,NE,38,0.0,0.0,95,0.00,,,0.01,VWS V14.00,2013-01-19 02:21:00,
2013-01-18 21:26:00,35.9,34.6,30.48,NE,38,0.0,0.0,95,0.00,,,0.01,VWS V14.00,2013-01-19 02:26:00,
2013-01-18 21:31:00,35.8,34.5,30.48,NE,38,0.0,0.0,95,0.00,,,0.01,VWS V14.00,2013-01-19 02:31:00,
2013-01-18 21:36:00,35.7,34.4,30.48,NE,38,0.0,0.0,95,0.00,,,0.01,VWS V14.00,2013-01-19 02:36:00,
2013-01-18 21:41:00,35.6,34.3,30.48,NE,38,0.0,0.0,95,0.00,,,0.01,VWS V14.00,2013-01-19 02:41:00,
2013-01-18 21:47:00,35.5,34.2,30.48,NE,38,0.0,0.0,95,0.00,,,0.01,VWS V14.00,2013-01-19 02:47:00,
2013-01-18 21:52:00,35.3,34.0,30.47,NE,38,0.0,0.0,95,0.00,,,0.01,VWS V14.00,2013-01-19 02:52:00,
2013-01-18 21:57:00,35.3,34.0,30.47,NE,38,0.0,0.0,95,0.00,,,0.01,VWS V14.00,2013-01-19 02:57:00,
2013-01-18 22:02:00,35.3,34.0,30.47,NE,38,0.0,0.0,95,0.00,,,0.01,VWS V14.00,2013-01-19 03:02:00,
2013-01-18 22:07:00,35.2,33.9,30.47,NE,38,0.0,0.0,95,0.00,,,0.01,VWS V14.00,2013-01-19 03:07:00,
2013-01-18 22:12:00,35.1,33.8,30.47,NE,38,0.0,0.0,95,0.00,,,0.01,VWS V14.00,2013-01-19 03:12:00,
2013-01-18 22:17:00,34.9,33.6,30.47,NE,38,0.0,0.0,95,0.00,,,0.01,VWS V14.00,2013-01-19 03:17:00,
2013-01-18 22:22:00,34.9,33.6,30.47,NE,38,0.0,0.0,95,0.00,,,0.01,VWS V14.00,2013-01-19 03:22:00,
2013-01-18 22:27:00,34.8,33.5,30.47,NE,38,0.0,0.0,95,0.00,,,0.01,VWS V14.00,2013-01-19 03:27:00,
2013-01-18 22:32:00,34.8,33.5,30.47,NE,38,0.0,0.0,95,0.00,,,0.01,VWS V14.00,2013-01-19 03:32:00,
2013-01-18 22:37:00,34.7,33.4,30.46,NE,38,0.0,0.0,95,0.00,,,0.01,VWS V14.00,2013-01-19 03:37:00,
2013-01-18 22:42:00,34.5,33.2,30.46,NE,38,0.0,0.0,95,0.00,,,0.01,VWS V14.00,2013-01-19 03:42:00,
2013-01-18 22:47:00,34.4,33.1,30.46,NE,38,0.0,0.0,95,0.00,,,0.01,VWS V14.00,2013-01-19 03:47:00,
2013-01-18 22:52:00,34.2,32.9,30.46,NE,38,0.0,0.0,95,0.00,,,0.01,VWS V14.00,2013-01-19 03:52:00,
2013-01-18 22:57:00,34.2,33.2,30.46,NE,38,0.0,0.0,96,0.00,,,0.01,VWS V14.00,2013-01-19 03:57:00,
2013-01-18 23:03:00,34.2,33.2,30.46,NE,38,0.0,0.0,96,0.00,,,0.01,VWS V14.00,2013-01-19 04:03:00,
2013-01-18 23:08:00,34.2,33.2,30.46,NE,38,0.0,0.0,96,0.00,,,0.01,VWS V14.00,2013-01-19 04:08:00,
2013-01-18 23:12:00,34.3,33.3,30.46,NE,38,0.0,0.0,96,0.00,,,0.01,VWS V14.00,2013-01-19 04:12:00,
2013-01-18 23:18:00,34.3,33.3,30.46,NE,38,0.0,0.0,96,0.00,,,0.01,VWS V14.00,2013-01-19 04:18:00,
2013-01-18 23:23:00,34.2,33.2,30.46,NE,38,0.0,0.0,96,0.00,,,0.01,VWS V14.00,2013-01-19 04:23:00,
2013-01-18 23:28:00,34.0,33.0,30.46,NE,38,0.0,0.0,96,0.00,,,0.01,VWS V14.00,2013-01-19 04:28:00,
2013-01-18 23:33:00,33.9,32.9,30.46,NE,38,0.0,0.0,96,0.00,,,0.01,VWS V14.00,2013-01-19 04:33:00,
2013-01-18 23:38:00,33.8,32.8,30.46,NE,38,0.0,0.0,96,0.00,,,0.01,VWS V14.00,2013-01-19 04:38:00,
2013-01-18 23:43:00,33.8,32.8,30.46,NE,38,0.0,0.0,96,0.00,,,0.01,VWS V14.00,2013-01-19 04:43:00,
2013-01-18 23:48:00,33.9,32.9,30.46,NE,38,0.0,0.0,96,0.00,,,0.01,VWS V14.00,2013-01-19 04:48:00,
2013-01-18 23:53:00,33.9,32.9,30.46,NE,38,0.0,0.0,96,0.00,,,0.01,VWS V14.00,2013-01-19 04:53:00,
2013-01-18 23:58:00,33.8,32.8,30.46,NE,38,0.0,0.0,96,0.00,,,0.01,VWS V14.00,2013-01-19 04:58:00,